Time;durP1;ratioP1;P1;durP2;ratioP2;P2;SDS_P1;SDS_P2;PMS_P1;PMS_P2;Temp;Humidity;BMP_temperature;BMP_pressure;BME280_temperature;BME280_humidity;BME280_pressure;Samples;Min_cycle;Max_cycle;Signal;HPM_P1;HPM_P2
2022/02/21 00:01:01;;;;;;;1.30;0.50;;;;;;;-148.22;100.00;64452.44;5085578;28;20415;-63
2022/02/21 00:03:30;;;;;;;1.70;0.60;;;;;;;-148.22;100.00;64452.44;5087944;28;20090;-63
2022/02/21 00:05:57;;;;;;;1.88;0.60;;;;;;;-148.22;100.00;64452.44;5074289;28;20407;-62
2022/02/21 00:08:23;;;;;;;2.58;0.55;;;;;;;-148.22;100.00;64452.44;5067899;28;20055;-63
2022/02/21 00:10:50;;;;;;;3.28;0.65;;;;;;;-148.22;100.00;64452.44;5075045;28;20527;-63
2022/02/21 00:13:17;;;;;;;2.25;0.45;;;;;;;-148.22;100.00;64452.44;5081137;28;20040;-63
2022/02/21 00:15:44;;;;;;;0.98;0.50;;;;;;;-148.22;100.00;64452.44;5086850;28;20041;-63
2022/02/21 00:18:10;;;;;;;2.15;0.90;;;;;;;-148.22;100.00;64452.44;5085270;28;20044;-62
2022/02/21 00:20:37;;;;;;;3.70;0.88;;;;;;;-148.22;100.00;64452.44;5080846;28;20140;-62
2022/02/21 00:23:04;;;;;;;2.17;0.60;;;;;;;-148.22;100.00;64452.44;5083395;28;20750;-62
2022/02/21 00:25:30;;;;;;;2.58;0.60;;;;;;;-148.22;100.00;64452.44;5068369;28;20158;-62
2022/02/21 00:27:57;;;;;;;1.23;0.50;;;;;;;-148.22;100.00;64452.44;5066783;28;20063;-63
2022/02/21 00:30:24;;;;;;;2.05;0.40;;;;;;;-148.22;100.00;64452.44;5082847;28;20055;-62
2022/02/21 00:32:51;;;;;;;3.17;0.82;;;;;;;-148.22;100.00;64452.44;5073072;28;20504;-63
2022/02/21 00:35:18;;;;;;;3.20;0.63;;;;;;;-148.22;100.00;64452.44;5070065;28;20566;-63
2022/02/21 00:37:44;;;;;;;4.30;0.65;;;;;;;-148.22;100.00;64452.44;5085342;28;20055;-63
2022/02/21 00:40:11;;;;;;;1.05;0.38;;;;;;;-148.22;100.00;64452.44;5077437;28;20044;-61
2022/02/21 00:42:38;;;;;;;1.15;0.50;;;;;;;-148.22;100.00;64452.44;5078851;28;20515;-62
2022/02/21 00:45:07;;;;;;;1.92;0.38;;;;;;;-148.22;100.00;64452.44;5086214;28;20051;-62
2022/02/21 00:47:34;;;;;;;1.02;0.50;;;;;;;-148.22;100.00;64452.44;5084831;28;20423;-62
2022/02/21 00:50:01;;;;;;;3.72;0.52;;;;;;;-148.22;100.00;64452.44;5074325;28;20503;-63
2022/02/21 00:52:28;;;;;;;3.47;0.55;;;;;;;-148.22;100.00;64452.44;5096549;28;20400;-62
2022/02/21 00:54:54;;;;;;;3.05;0.70;;;;;;;-148.22;100.00;64452.44;5096941;28;20039;-63
2022/02/21 00:57:21;;;;;;;2.42;0.60;;;;;;;-148.22;100.00;64452.44;5086534;28;20043;-63
2022/02/21 00:59:48;;;;;;;1.92;0.57;;;;;;;-148.22;100.00;64452.44;5085387;28;20032;-62
2022/02/21 01:02:15;;;;;;;3.75;0.60;;;;;;;-148.22;100.00;64452.44;5084445;28;20044;-62
2022/02/21 01:04:41;;;;;;;4.20;0.70;;;;;;;-148.22;100.00;64452.44;5079954;28;20045;-63
2022/02/21 01:07:08;;;;;;;1.58;1.13;;;;;;;-148.22;100.00;64452.44;5066047;28;20043;-62
2022/02/21 01:09:35;;;;;;;1.38;0.43;;;;;;;-148.22;100.00;64452.44;5072008;28;20037;-62
2022/02/21 01:12:02;;;;;;;2.63;0.73;;;;;;;-148.22;100.00;64452.44;5075050;28;20046;-62
2022/02/21 01:14:28;;;;;;;2.00;0.63;;;;;;;-148.22;100.00;64452.44;5083182;28;20389;-62
2022/02/21 01:16:55;;;;;;;4.72;0.40;;;;;;;-148.22;100.00;64452.44;5077514;28;20047;-62
2022/02/21 01:19:21;;;;;;;2.72;0.50;;;;;;;-148.22;100.00;64452.44;5077117;28;20029;-62
2022/02/21 01:21:48;;;;;;;3.20;0.75;;;;;;;-148.22;100.00;64452.44;5073264;28;20491;-62
2022/02/21 01:24:15;;;;;;;2.13;0.60;;;;;;;-148.22;100.00;64452.44;5084966;28;20469;-62
2022/02/21 01:26:41;;;;;;;3.95;0.90;;;;;;;-148.22;100.00;64452.44;5079599;28;20055;-63
2022/02/21 01:29:08;;;;;;;2.33;0.43;;;;;;;-148.22;100.00;64452.44;5077012;28;20039;-62
2022/02/21 01:31:34;;;;;;;1.30;0.60;;;;;;;-148.22;100.00;64452.44;5082195;28;20045;-62
2022/02/21 01:34:01;;;;;;;3.33;0.68;;;;;;;-148.22;100.00;64452.44;5085727;28;20426;-63
2022/02/21 01:36:29;;;;;;;2.30;0.60;;;;;;;-148.22;100.00;64452.44;5084974;28;20047;-63
2022/02/21 01:38:55;;;;;;;3.10;0.55;;;;;;;-148.22;100.00;64452.44;5079156;28;20062;-62
2022/02/21 01:41:22;;;;;;;1.15;0.50;;;;;;;-148.22;100.00;64452.44;5070354;28;20044;-63
2022/02/21 01:43:49;;;;;;;1.58;0.52;;;;;;;-148.22;100.00;64452.44;5078950;28;20039;-62
2022/02/21 01:46:15;;;;;;;0.90;0.40;;;;;;;-148.22;100.00;64452.44;5082176;28;20396;-63
2022/02/21 01:48:42;;;;;;;1.55;0.50;;;;;;;-148.22;100.00;64452.44;5084911;28;20055;-63
2022/02/21 01:51:10;;;;;;;2.58;0.93;;;;;;;-148.22;100.00;64452.44;5085398;28;20506;-62
2022/02/21 01:53:37;;;;;;;1.90;0.77;;;;;;;-148.22;100.00;64452.44;5083448;28;20462;-62
2022/02/21 01:56:04;;;;;;;1.33;0.73;;;;;;;-148.22;100.00;64452.44;5084258;28;20633;-63
2022/02/21 01:58:31;;;;;;;2.22;0.60;;;;;;;-148.22;100.00;64452.44;5076807;28;20078;-63
2022/02/21 02:00:57;;;;;;;1.13;0.30;;;;;;;-148.22;100.00;64452.44;5065761;28;20051;-62
2022/02/21 02:03:24;;;;;;;1.80;0.60;;;;;;;-148.22;100.00;64452.44;5070265;28;20056;-62
2022/02/21 02:05:51;;;;;;;2.95;0.45;;;;;;;-148.22;100.00;64452.44;5085096;28;20047;-62
2022/02/21 02:08:17;;;;;;;0.90;0.40;;;;;;;-148.22;100.00;64452.44;5073324;28;20660;-62
2022/02/21 02:10:44;;;;;;;1.65;0.55;;;;;;;-148.22;100.00;64452.44;5063819;28;20044;-62
2022/02/21 02:13:10;;;;;;;1.33;0.28;;;;;;;-148.22;100.00;64452.44;5065168;28;20128;-62
2022/02/21 02:15:37;;;;;;;2.75;0.70;;;;;;;-148.22;100.00;64452.44;5079048;28;20041;-62
2022/02/21 02:18:04;;;;;;;3.58;0.40;;;;;;;-148.22;100.00;64452.44;5083214;28;20091;-62
2022/02/21 02:20:30;;;;;;;0.98;0.30;;;;;;;-148.22;100.00;64452.44;5085410;28;20033;-63
2022/02/21 02:22:57;;;;;;;1.75;0.50;;;;;;;-148.22;100.00;64452.44;5085917;28;20044;-62
2022/02/21 02:25:24;;;;;;;1.30;0.20;;;;;;;-148.22;100.00;64452.44;5079205;28;20076;-63
2022/02/21 02:27:50;;;;;;;4.93;1.17;;;;;;;-148.22;100.00;64452.44;5083836;28;20036;-62
2022/02/21 02:30:17;;;;;;;1.30;0.30;;;;;;;-148.22;100.00;64452.44;5083113;28;20496;-63
2022/02/21 02:32:48;;;;;;;0.25;0.10;;;;;;;-148.22;100.00;64452.44;5084069;28;20533;-62
2022/02/21 02:35:22;;;;;;;0.50;0.30;;;;;;;-148.22;100.00;64452.44;5066495;28;20060;-63
2022/02/21 02:37:49;;;;;;;1.88;0.30;;;;;;;-148.22;100.00;64452.44;5080599;28;20055;-62
2022/02/21 02:40:15;;;;;;;1.45;0.22;;;;;;;-148.22;100.00;64452.44;5084828;28;20048;-63
2022/02/21 02:42:42;;;;;;;0.30;0.15;;;;;;;-148.22;100.00;64452.44;5080921;28;20063;-63
2022/02/21 02:45:09;;;;;;;0.75;0.40;;;;;;;-148.22;100.00;64452.44;5085176;28;20055;-62
2022/02/21 02:47:35;;;;;;;0.40;0.20;;;;;;;-148.22;100.00;64452.44;5085081;28;20040;-62
2022/02/21 02:50:03;;;;;;;0.57;0.20;;;;;;;-148.22;100.00;64452.44;5070118;28;20709;-63
2022/02/21 02:52:30;;;;;;;1.05;0.40;;;;;;;-148.22;100.00;64452.44;5098956;28;20050;-62
2022/02/21 02:54:56;;;;;;;1.38;0.35;;;;;;;-148.22;100.00;64452.44;5079610;28;20059;-62
2022/02/21 02:57:24;;;;;;;0.45;0.22;;;;;;;-148.22;100.00;64452.44;5089097;28;20114;-62
2022/02/21 02:59:50;;;;;;;1.88;0.43;;;;;;;-148.22;100.00;64452.44;5088477;28;20085;-63
2022/02/21 03:02:17;;;;;;;1.77;0.40;;;;;;;-148.22;100.00;64452.44;5083544;28;20044;-63
2022/02/21 03:04:43;;;;;;;1.13;0.30;;;;;;;-148.22;100.00;64452.44;5087896;28;20441;-62
2022/02/21 03:07:10;;;;;;;1.10;0.60;;;;;;;-148.22;100.00;64452.44;5082491;28;20101;-63
2022/02/21 03:09:37;;;;;;;1.23;0.40;;;;;;;-148.22;100.00;64452.44;5087398;28;20040;-62
2022/02/21 03:12:04;;;;;;;1.02;0.35;;;;;;;-148.22;100.00;64452.44;5088269;28;20040;-63
2022/02/21 03:14:31;;;;;;;1.13;0.50;;;;;;;-148.22;100.00;64452.44;5078262;28;20407;-63
2022/02/21 03:16:57;;;;;;;2.33;0.55;;;;;;;-148.22;100.00;64452.44;5068418;28;20059;-62
2022/02/21 03:19:25;;;;;;;2.63;0.60;;;;;;;-148.22;100.00;64452.44;5068060;28;20037;-63
2022/02/21 03:21:53;;;;;;;0.75;0.43;;;;;;;-148.22;100.00;64452.44;5067075;28;20407;-62
2022/02/21 03:24:20;;;;;;;1.98;0.30;;;;;;;-148.22;100.00;64452.44;5077516;28;20118;-63
2022/02/21 03:26:46;;;;;;;1.58;0.22;;;;;;;-148.22;100.00;64452.44;5085057;28;20090;-63
2022/02/21 03:29:13;;;;;;;7.97;0.98;;;;;;;-148.22;100.00;64452.44;5087949;28;20040;-63
2022/02/21 03:31:40;;;;;;;2.45;0.30;;;;;;;-148.22;100.00;64452.44;5088889;28;20097;-63
2022/02/21 03:34:06;;;;;;;2.17;0.43;;;;;;;-148.22;100.00;64452.44;5087020;28;20040;-63
2022/02/21 03:36:33;;;;;;;2.28;0.40;;;;;;;-148.22;100.00;64452.44;5080255;28;20055;-63
2022/02/21 03:38:59;;;;;;;2.05;0.50;;;;;;;-148.22;100.00;64452.44;5067972;28;20045;-63
2022/02/21 03:41:27;;;;;;;2.92;0.43;;;;;;;-148.22;100.00;64452.44;5067795;28;20037;-63
2022/02/21 03:43:54;;;;;;;4.68;0.45;;;;;;;-148.22;100.00;64452.44;5081326;28;20050;-63
2022/02/21 03:46:26;;;;;;;1.80;0.40;;;;;;;-148.22;100.00;64452.44;5082172;28;20055;-63
2022/02/21 03:48:52;;;;;;;2.20;0.40;;;;;;;-148.22;100.00;64452.44;5088335;28;20044;-63
2022/02/21 03:51:19;;;;;;;4.03;0.90;;;;;;;-148.22;100.00;64452.44;5087507;28;20048;-63
2022/02/21 03:53:45;;;;;;;3.22;0.65;;;;;;;-148.22;100.00;64452.44;5095103;28;20059;-63
2022/02/21 03:56:12;;;;;;;1.52;0.50;;;;;;;-148.22;100.00;64452.44;5087253;28;20048;-63
2022/02/21 03:58:41;;;;;;;5.80;0.60;;;;;;;-148.22;100.00;64452.44;5088143;28;20055;-63
2022/02/21 04:01:07;;;;;;;2.85;0.55;;;;;;;-148.22;100.00;64452.44;5086079;28;20510;-63
2022/02/21 04:03:34;;;;;;;3.90;0.90;;;;;;;-148.22;100.00;64452.44;5075953;28;20044;-63
2022/02/21 04:06:01;;;;;;;2.08;0.60;;;;;;;-148.22;100.00;64452.44;5065629;28;20048;-63
2022/02/21 04:08:27;;;;;;;4.35;0.70;;;;;;;-148.22;100.00;64452.44;5087741;28;20040;-63
2022/02/21 04:10:54;;;;;;;1.52;0.60;;;;;;;-148.22;100.00;64452.44;5087971;28;20032;-63
2022/02/21 04:13:20;;;;;;;2.67;0.55;;;;;;;-148.22;100.00;64452.44;5071801;28;20044;-63
2022/02/21 04:15:47;;;;;;;1.08;0.60;;;;;;;-148.22;100.00;64452.44;5087338;28;20061;-63
2022/02/21 04:18:14;;;;;;;2.83;0.47;;;;;;;-148.22;100.00;64452.44;5087656;28;20044;-63
2022/02/21 04:20:40;;;;;;;3.08;0.63;;;;;;;-148.22;100.00;64452.44;5087318;28;20040;-63
2022/02/21 04:23:07;;;;;;;3.00;1.60;;;;;;;-148.22;100.00;64452.44;5082318;28;20042;-63
2022/02/21 04:25:33;;;;;;;1.73;0.82;;;;;;;-148.22;100.00;64452.44;5061159;28;20059;-63
2022/02/21 04:28:00;;;;;;;4.45;1.33;;;;;;;-148.22;100.00;64452.44;5087601;28;20055;-63
2022/02/21 04:30:28;;;;;;;2.42;0.45;;;;;;;-148.22;100.00;64452.44;5086140;28;20040;-63
2022/02/21 04:32:56;;;;;;;3.03;0.68;;;;;;;-148.22;100.00;64452.44;5084036;28;20037;-62
2022/02/21 04:35:25;;;;;;;2.75;1.13;;;;;;;-148.22;100.00;64452.44;5072735;28;20036;-63
2022/02/21 04:37:53;;;;;;;3.15;1.13;;;;;;;-148.22;100.00;64452.44;5086803;28;20040;-63
2022/02/21 04:40:25;;;;;;;3.80;0.98;;;;;;;-148.22;100.00;64452.44;5073046;28;20045;-63
2022/02/21 04:42:55;;;;;;;4.80;0.90;;;;;;;-148.22;100.00;64452.44;5083556;28;20044;-62
2022/02/21 04:45:27;;;;;;;7.93;0.88;;;;;;;-148.22;100.00;64452.44;5087184;28;20051;-63
2022/02/21 04:47:54;;;;;;;3.78;0.82;;;;;;;-148.22;100.00;64452.44;5076160;28;20495;-62
2022/02/21 04:50:21;;;;;;;3.65;1.52;;;;;;;-148.22;100.00;64452.44;5065407;28;20064;-63
2022/02/21 04:52:47;;;;;;;4.22;0.95;;;;;;;-148.22;100.00;64452.44;5081078;28;20047;-63
2022/02/21 04:55:14;;;;;;;5.88;0.80;;;;;;;-148.22;100.00;64452.44;5070367;28;20418;-63
2022/02/21 04:57:41;;;;;;;5.63;0.98;;;;;;;-148.22;100.00;64452.44;5086004;28;20056;-63
2022/02/21 05:00:11;;;;;;;5.78;0.88;;;;;;;-148.22;100.00;64452.44;5087052;28;20082;-63
2022/02/21 05:02:37;;;;;;;7.75;1.48;;;;;;;-148.22;100.00;64452.44;5077655;28;20047;-63
2022/02/21 05:05:06;;;;;;;3.38;0.82;;;;;;;-148.22;100.00;64452.44;5085162;28;20032;-63
2022/02/21 05:07:33;;;;;;;3.47;1.08;;;;;;;-148.22;100.00;64452.44;5081150;28;20067;-63
2022/02/21 05:10:00;;;;;;;4.88;1.15;;;;;;;-148.22;100.00;64452.44;5076347;28;20042;-63
2022/02/21 05:12:26;;;;;;;4.32;1.00;;;;;;;-148.22;100.00;64452.44;5083696;28;20036;-63
2022/02/21 05:14:53;;;;;;;5.18;1.00;;;;;;;-148.22;100.00;64452.44;5084868;28;20047;-63
2022/02/21 05:17:19;;;;;;;5.65;1.05;;;;;;;-148.22;100.00;64452.44;5084135;28;20036;-63
2022/02/21 05:19:46;;;;;;;2.90;0.60;;;;;;;-148.22;100.00;64452.44;5086776;28;20495;-63
2022/02/21 05:22:13;;;;;;;2.63;0.73;;;;;;;-148.22;100.00;64452.44;5078830;28;20040;-63
2022/02/21 05:24:39;;;;;;;3.67;1.00;;;;;;;-148.22;100.00;64452.44;5085487;28;20059;-63
2022/02/21 05:27:06;;;;;;;5.13;1.10;;;;;;;-148.22;100.00;64452.44;5085637;28;20048;-63
2022/02/21 05:29:33;;;;;;;6.35;1.35;;;;;;;-148.22;100.00;64452.44;5085928;28;20416;-63
2022/02/21 05:31:59;;;;;;;4.35;0.80;;;;;;;-148.22;100.00;64452.44;5075848;28;20052;-63
2022/02/21 05:34:26;;;;;;;8.25;1.10;;;;;;;-148.22;100.00;64452.44;5071017;28;20048;-63
2022/02/21 05:36:52;;;;;;;6.70;1.30;;;;;;;-148.22;100.00;64452.44;5069956;28;20043;-63
2022/02/21 05:39:19;;;;;;;4.18;1.05;;;;;;;-148.22;100.00;64452.44;5086240;28;20040;-63
2022/02/21 05:41:46;;;;;;;8.60;2.03;;;;;;;-148.22;100.00;64452.44;5082488;28;20773;-63
2022/02/21 05:44:12;;;;;;;4.00;0.82;;;;;;;-148.22;100.00;64452.44;5079720;28;20044;-63
2022/02/21 05:46:40;;;;;;;5.30;1.20;;;;;;;-148.22;100.00;64452.44;5065621;28;20044;-63
2022/02/21 05:49:06;;;;;;;3.30;0.68;;;;;;;-148.22;100.00;64452.44;5065550;28;20036;-63
2022/02/21 05:51:33;;;;;;;5.00;1.60;;;;;;;-148.22;100.00;64452.44;5072643;28;20035;-63
2022/02/21 05:53:59;;;;;;;8.65;1.20;;;;;;;-148.22;100.00;64452.44;5093132;28;20097;-63
2022/02/21 05:56:26;;;;;;;6.75;1.20;;;;;;;-148.22;100.00;64452.44;5084838;28;20032;-63
2022/02/21 05:58:52;;;;;;;7.57;1.50;;;;;;;-148.22;100.00;64452.44;5079475;28;20032;-63
2022/02/21 06:01:19;;;;;;;6.70;1.30;;;;;;;-148.22;100.00;64452.44;5067200;28;20499;-63
2022/02/21 06:03:46;;;;;;;7.10;1.55;;;;;;;-148.22;100.00;64452.44;5077400;28;20048;-65
2022/02/21 06:06:12;;;;;;;5.85;1.98;;;;;;;-148.22;100.00;64452.44;5069496;28;20031;-64
2022/02/21 06:08:39;;;;;;;7.10;1.60;;;;;;;-148.22;100.00;64452.44;5085335;28;20044;-64
2022/02/21 06:11:06;;;;;;;4.72;1.65;;;;;;;-148.22;100.00;64452.44;5079747;28;20044;-63
2022/02/21 06:13:33;;;;;;;3.15;1.13;;;;;;;-148.22;100.00;64452.44;5083892;28;20093;-64
2022/02/21 06:16:00;;;;;;;14.27;2.03;;;;;;;-148.22;100.00;64452.44;5083602;28;20503;-64
2022/02/21 06:18:26;;;;;;;6.30;1.33;;;;;;;-148.22;100.00;64452.44;5085835;28;20097;-64
2022/02/21 06:20:53;;;;;;;8.82;1.52;;;;;;;-148.22;100.00;64452.44;5083458;28;20541;-65
2022/02/21 06:23:20;;;;;;;5.65;1.45;;;;;;;-148.22;100.00;64452.44;5082558;28;20032;-65
2022/02/21 06:25:47;;;;;;;7.95;1.90;;;;;;;-148.22;100.00;64452.44;5072371;28;20048;-63
2022/02/21 06:28:14;;;;;;;6.20;0.98;;;;;;;-148.22;100.00;64452.44;5085980;28;20533;-64
2022/02/21 06:30:40;;;;;;;4.10;0.90;;;;;;;-148.22;100.00;64452.44;5082724;28;20032;-64
2022/02/21 06:33:08;;;;;;;3.22;1.20;;;;;;;-148.22;100.00;64452.44;5089772;28;20040;-63
2022/02/21 06:35:35;;;;;;;7.63;1.00;;;;;;;-148.22;100.00;64452.44;5100087;28;20048;-64
2022/02/21 06:38:04;;;;;;;4.47;1.00;;;;;;;-148.22;100.00;64452.44;5078469;28;20435;-70
2022/02/21 06:40:31;;;;;;;6.68;1.90;;;;;;;-148.22;100.00;64452.44;5083850;28;20051;-70
2022/02/21 06:42:58;;;;;;;5.30;1.00;;;;;;;-148.22;100.00;64452.44;5076432;28;20048;-68
2022/02/21 06:45:27;;;;;;;8.13;1.48;;;;;;;-148.22;100.00;64452.44;5084024;28;20044;-66
2022/02/21 06:47:54;;;;;;;7.93;1.27;;;;;;;-148.22;100.00;64452.44;5086871;28;20051;-64
2022/02/21 06:50:21;;;;;;;2.55;0.88;;;;;;;-148.22;100.00;64452.44;5086068;28;20845;-63
2022/02/21 06:52:48;;;;;;;5.07;1.52;;;;;;;-148.22;100.00;64452.44;5091705;28;20044;-64
2022/02/21 06:55:15;;;;;;;11.48;1.75;;;;;;;-148.22;100.00;64452.44;5081609;28;20044;-64
2022/02/21 06:57:43;;;;;;;7.30;2.00;;;;;;;-148.22;100.00;64452.44;5082047;28;20054;-64
2022/02/21 07:00:11;;;;;;;21.85;2.20;;;;;;;-148.22;100.00;64452.44;5079400;28;20522;-64
2022/02/21 07:02:38;;;;;;;12.68;1.45;;;;;;;-148.22;100.00;64452.44;5081176;28;20574;-64
2022/02/21 07:05:05;;;;;;;5.45;1.10;;;;;;;-148.22;100.00;64452.44;5084682;28;20420;-63
2022/02/21 07:07:33;;;;;;;5.38;1.65;;;;;;;-148.22;100.00;64452.44;5084763;28;20044;-63
2022/02/21 07:10:00;;;;;;;10.07;1.58;;;;;;;-148.22;100.00;64452.44;5076211;28;20049;-65
2022/02/21 07:12:27;;;;;;;9.90;2.47;;;;;;;-148.22;100.00;64452.44;5085215;28;20051;-63
2022/02/21 07:14:53;;;;;;;10.52;2.45;;;;;;;-148.22;100.00;64452.44;5078124;28;20048;-65
2022/02/21 07:17:23;;;;;;;10.57;1.85;;;;;;;-148.22;100.00;64452.44;5079260;28;20072;-63
2022/02/21 07:19:51;;;;;;;6.30;1.25;;;;;;;-148.22;100.00;64452.44;5080405;28;20044;-63
2022/02/21 07:22:18;;;;;;;14.32;1.98;;;;;;;-148.22;100.00;64452.44;5086652;28;20074;-63
2022/02/21 07:24:44;;;;;;;7.75;0.98;;;;;;;-148.22;100.00;64452.44;5085682;28;20093;-62
2022/02/21 07:27:11;;;;;;;7.53;1.23;;;;;;;-148.22;100.00;64452.44;5085266;28;20105;-63
2022/02/21 07:29:37;;;;;;;12.75;2.65;;;;;;;-148.22;100.00;64452.44;5084658;28;20058;-64
2022/02/21 07:32:05;;;;;;;3.80;0.85;;;;;;;-148.22;100.00;64452.44;5085721;28;20691;-63
2022/02/21 07:34:33;;;;;;;7.15;1.80;;;;;;;-148.22;100.00;64452.44;5088730;28;20040;-63
2022/02/21 07:36:59;;;;;;;15.10;4.38;;;;;;;-148.22;100.00;64452.44;5087689;28;20063;-63
2022/02/21 07:39:30;;;;;;;13.85;2.63;;;;;;;-148.22;100.00;64452.44;5088777;28;20059;-64
2022/02/21 07:41:57;;;;;;;7.22;1.70;;;;;;;-148.22;100.00;64452.44;5085354;28;20094;-62
2022/02/21 07:44:24;;;;;;;8.38;1.45;;;;;;;-148.22;100.00;64452.44;5086530;28;20055;-63
2022/02/21 07:46:52;;;;;;;7.78;2.10;;;;;;;-148.22;100.00;64452.44;5086264;28;20072;-62
2022/02/21 07:49:19;;;;;;;6.93;0.90;;;;;;;-148.22;100.00;64452.44;5093035;28;20048;-64
2022/02/21 07:51:46;;;;;;;12.13;2.13;;;;;;;-148.22;100.00;64452.44;5105119;28;20048;-63
2022/02/21 07:54:13;;;;;;;7.78;2.20;;;;;;;-148.22;100.00;64452.44;5106414;28;20043;-63
2022/02/21 07:57:01;;;;;;;16.60;2.75;;;;;;;-148.22;100.00;64452.44;5083532;28;20055;-62
2022/02/21 07:59:28;;;;;;;5.95;1.73;;;;;;;-148.22;100.00;64452.44;5085905;28;20422;-62
2022/02/21 08:01:55;;;;;;;9.95;1.98;;;;;;;-148.22;100.00;64452.44;5085635;28;20036;-63
2022/02/21 08:04:25;;;;;;;9.65;2.47;;;;;;;-148.22;100.00;64452.44;5084199;28;20043;-62
2022/02/21 08:06:52;;;;;;;12.32;3.15;;;;;;;-148.22;100.00;64452.44;5083850;28;20054;-63
2022/02/21 08:09:20;;;;;;;7.55;1.63;;;;;;;-148.22;100.00;64452.44;5084872;28;20040;-64
2022/02/21 08:11:48;;;;;;;3.13;1.02;;;;;;;-148.22;100.00;64452.44;5081078;28;20055;-64
2022/02/21 08:14:14;;;;;;;2.95;1.30;;;;;;;-148.22;100.00;64452.44;5085015;28;20044;-63
2022/02/21 08:16:41;;;;;;;3.78;1.15;;;;;;;-148.22;100.00;64452.44;5085041;28;20094;-63
2022/02/21 08:19:08;;;;;;;10.20;2.70;;;;;;;-148.22;100.00;64452.44;5098925;28;20052;-63
2022/02/21 08:21:34;;;;;;;7.43;1.70;;;;;;;-148.22;100.00;64452.44;5085456;28;20036;-62
2022/02/21 08:24:01;;;;;;;7.13;1.60;;;;;;;-148.22;100.00;64452.44;5089819;28;20131;-63
2022/02/21 08:26:29;;;;;;;7.20;1.75;;;;;;;-148.22;100.00;64452.44;5094163;28;20059;-63
2022/02/21 08:28:55;;;;;;;6.90;1.85;;;;;;;-148.22;100.00;64452.44;5090219;28;20058;-63
2022/02/21 08:31:24;;;;;;;8.50;1.35;;;;;;;-148.22;100.00;64452.44;5103189;28;20043;-63
2022/02/21 08:33:50;;;;;;;8.23;1.42;;;;;;;-148.22;100.00;64452.44;5085474;28;20450;-64
2022/02/21 08:36:17;;;;;;;6.15;1.50;;;;;;;-148.22;100.00;64452.44;5085568;28;20266;-64
2022/02/21 08:38:44;;;;;;;6.65;1.30;;;;;;;-148.22;100.00;64452.44;5103831;28;20075;-63
2022/02/21 08:41:10;;;;;;;4.72;1.30;;;;;;;-148.22;100.00;64452.44;5100077;28;20040;-63
2022/02/21 08:43:37;;;;;;;6.15;1.33;;;;;;;-148.22;100.00;64452.44;5084373;28;20546;-64
2022/02/21 08:46:03;;;;;;;13.90;1.83;;;;;;;-148.22;100.00;64452.44;5085242;28;20495;-63
2022/02/21 08:48:50;;;;;;;2.03;0.75;;;;;;;-148.22;100.00;64452.44;5104928;28;20036;-63
2022/02/21 08:51:16;;;;;;;11.38;2.38;;;;;;;-148.22;100.00;64452.44;5101306;28;20047;-63
2022/02/21 08:53:43;;;;;;;9.32;2.45;;;;;;;-148.22;100.00;64452.44;5105740;28;20047;-64
2022/02/21 08:56:10;;;;;;;11.43;3.88;;;;;;;-148.22;100.00;64452.44;5088877;28;20055;-63
2022/02/21 08:58:36;;;;;;;6.57;2.25;;;;;;;-148.22;100.00;64452.44;5089786;28;20044;-64
2022/02/21 09:01:03;;;;;;;12.63;2.42;;;;;;;-148.22;100.00;64452.44;5090751;28;20036;-63
2022/02/21 09:03:29;;;;;;;9.55;1.88;;;;;;;-148.22;100.00;64452.44;5096750;28;20074;-63
2022/02/21 09:05:56;;;;;;;4.90;1.00;;;;;;;-148.22;100.00;64452.44;5083476;28;20044;-65
2022/02/21 09:08:25;;;;;;;5.40;1.13;;;;;;;-148.22;100.00;64452.44;5080001;28;20048;-64
2022/02/21 09:10:52;;;;;;;7.50;1.10;;;;;;;-148.22;100.00;64452.44;5097053;28;20054;-64
2022/02/21 09:13:18;;;;;;;3.22;1.40;;;;;;;-148.22;100.00;64452.44;5084490;28;20704;-63
2022/02/21 09:15:45;;;;;;;12.63;2.58;;;;;;;-148.22;100.00;64452.44;5078852;28;20056;-63
2022/02/21 09:18:12;;;;;;;10.05;1.23;;;;;;;-148.22;100.00;64452.44;5075669;28;20534;-64
2022/02/21 09:20:39;;;;;;;9.00;1.92;;;;;;;-148.22;100.00;64452.44;5103750;28;20039;-64
2022/02/21 09:23:06;;;;;;;6.22;1.20;;;;;;;-148.22;100.00;64452.44;5078039;28;20044;-64
2022/02/21 09:25:38;;;;;;;5.22;1.20;;;;;;;-148.22;100.00;64452.44;5082464;28;20058;-64
2022/02/21 09:28:05;;;;;;;6.28;0.90;;;;;;;-148.22;100.00;64452.44;5098753;28;20051;-64
2022/02/21 09:30:31;;;;;;;6.05;1.38;;;;;;;-148.22;100.00;64452.44;5105063;28;20048;-64
2022/02/21 09:32:58;;;;;;;8.02;1.35;;;;;;;-148.22;100.00;64452.44;5103374;28;20452;-65
2022/02/21 09:35:25;;;;;;;6.03;1.42;;;;;;;-148.22;100.00;64452.44;5096045;28;20673;-65
2022/02/21 09:37:51;;;;;;;7.82;1.98;;;;;;;-148.22;100.00;64452.44;5098233;28;20050;-64
2022/02/21 09:40:19;;;;;;;4.55;0.88;;;;;;;-148.22;100.00;64452.44;5104668;28;20055;-64
2022/02/21 09:42:47;;;;;;;5.68;1.48;;;;;;;-148.22;100.00;64452.44;5089440;28;20044;-65
2022/02/21 09:45:13;;;;;;;9.25;2.15;;;;;;;-148.22;100.00;64452.44;5091186;28;20127;-65
2022/02/21 09:47:40;;;;;;;1.98;0.47;;;;;;;-148.22;100.00;64452.44;5088711;28;20430;-65
2022/02/21 09:50:27;;;;;;;5.57;0.82;;;;;;;-148.22;100.00;64452.44;5096068;28;20508;-64
2022/02/21 09:53:01;;;;;;;2.95;0.80;;;;;;;-148.22;100.00;64452.44;5100156;28;20043;-64
2022/02/21 09:55:28;;;;;;;7.80;1.75;;;;;;;-148.22;100.00;64452.44;5091760;28;20058;-64
2022/02/21 09:57:55;;;;;;;6.88;1.48;;;;;;;-148.22;100.00;64452.44;5089854;28;20050;-64
2022/02/21 10:00:22;;;;;;;7.90;1.23;;;;;;;-148.22;100.00;64452.44;5091029;28;20044;-64
2022/02/21 10:02:51;;;;;;;4.18;0.85;;;;;;;-148.22;100.00;64452.44;5093302;28;20048;-64
2022/02/21 10:05:25;;;;;;;7.82;2.58;;;;;;;-148.22;100.00;64452.44;5094916;28;20073;-64
2022/02/21 10:07:53;;;;;;;13.07;1.08;;;;;;;-148.22;100.00;64452.44;5083638;28;20515;-65
2022/02/21 10:10:23;;;;;;;8.52;1.42;;;;;;;-148.22;100.00;64452.44;5106194;28;20043;-64
2022/02/21 10:13:00;;;;;;;8.68;1.30;;;;;;;-148.22;100.00;64452.44;5088347;28;20044;-64
2022/02/21 10:15:29;;;;;;;3.50;0.75;;;;;;;-148.22;100.00;64452.44;5103075;28;20071;-64
2022/02/21 10:18:08;;;;;;;6.68;0.90;;;;;;;-148.22;100.00;64452.44;5097431;28;20040;-64
2022/02/21 10:21:00;;;;;;;8.75;1.25;;;;;;;-148.22;100.00;64452.44;5101526;28;20040;-64
2022/02/21 10:23:31;;;;;;;9.38;1.67;;;;;;;-148.22;100.00;64452.44;5083761;28;20062;-64
2022/02/21 10:26:00;;;;;;;7.43;0.98;;;;;;;-148.22;100.00;64452.44;5108134;28;20062;-64
2022/02/21 10:28:30;;;;;;;5.97;1.13;;;;;;;-148.22;100.00;64452.44;5089363;28;20492;-64
2022/02/21 10:31:17;;;;;;;7.95;2.53;;;;;;;-148.22;100.00;64452.44;5099087;28;20043;-64
2022/02/21 10:34:07;;;;;;;3.50;0.75;;;;;;;-148.22;100.00;64452.44;5073957;28;20052;-64
2022/02/21 10:36:42;;;;;;;3.55;0.77;;;;;;;-148.22;100.00;64452.44;5087159;28;20441;-64
2022/02/21 10:39:17;;;;;;;3.53;0.88;;;;;;;-148.22;100.00;64452.44;5099456;28;20770;-65
2022/02/21 10:41:52;;;;;;;2.67;0.60;;;;;;;-148.22;100.00;64452.44;5086237;28;20063;-64
2022/02/21 10:44:27;;;;;;;2.85;0.90;;;;;;;-148.22;100.00;64452.44;5087712;28;20075;-64
2022/02/21 10:47:13;;;;;;;8.02;1.77;;;;;;;-148.22;100.00;64452.44;5086946;28;20044;-64
2022/02/21 10:49:55;;;;;;;3.00;0.98;;;;;;;-148.22;100.00;64452.44;5101240;28;20051;-64
2022/02/21 10:52:25;;;;;;;3.78;1.05;;;;;;;-148.22;100.00;64452.44;5095686;28;20064;-64
2022/02/21 10:54:53;;;;;;;4.50;1.00;;;;;;;-148.22;100.00;64452.44;5087807;28;20445;-64
2022/02/21 10:57:23;;;;;;;4.68;1.17;;;;;;;-148.22;100.00;64452.44;5085496;28;20052;-64
2022/02/21 10:59:51;;;;;;;6.78;0.93;;;;;;;-148.22;100.00;64452.44;5086894;28;20044;-64
2022/02/21 11:02:20;;;;;;;4.90;1.10;;;;;;;-148.22;100.00;64452.44;5093412;28;20032;-64
2022/02/21 11:04:47;;;;;;;4.93;1.08;;;;;;;-148.22;100.00;64452.44;5086944;28;20581;-64
2022/02/21 11:07:14;;;;;;;7.70;1.70;;;;;;;-148.22;100.00;64452.44;5087173;28;20048;-64
2022/02/21 11:09:43;;;;;;;3.60;0.90;;;;;;;-148.22;100.00;64452.44;5086400;28;20074;-65
2022/02/21 11:12:10;;;;;;;5.18;1.15;;;;;;;-148.22;100.00;64452.44;5100418;28;20044;-64